Terminal Aerodrome Forecast
Issued by NWS Green Bay, WI

Home | Current Version | Previous Version | Text Only | Print | Product List | Glossary On
Versions: 1 2 3 4 5 6 7 8 9 10 11 12 13 14 15 16 17 18 19 20 21 22 23 24 25 26 27 28 29 30 31 32 33 34 35 36 37 38 39 40 41 42 43 44 45 46
014
FTUS43 KGRB 220536 AAA
TAFGRB
TAF AMD
KGRB 220536Z 2206/2306 21010KT 6SM -SHRA BR SCT012 OVC035
      TEMPO 2206/2210 1SM TSRA BR OVC008CB
     FM221500 23008KT 5SM -SHRA BR OVC014
     FM221700 27008KT P6SM VCSH BKN035
     FM222200 30008KT 5SM -SHRA BR OVC012=

USA.gov is the U.S. government's official web portal to all federal, state and local government web resources and services.